createdAt,value
2023-05-23T00:01:40.019Z,95915.03
2023-05-23T00:04:06.990Z,95919.16
2023-05-23T00:06:34.630Z,95912.50
2023-05-23T00:09:01.901Z,95908.16
2023-05-23T00:11:29.473Z,95908.56
2023-05-23T00:13:57.702Z,95903.78
2023-05-23T00:16:24.648Z,95910.38
2023-05-23T00:18:52.031Z,95907.50
2023-05-23T00:21:18.883Z,95910.19
2023-05-23T00:23:45.711Z,95911.44
2023-05-23T00:26:12.538Z,95904.78
2023-05-23T00:28:39.330Z,95897.16
2023-05-23T00:31:06.167Z,95896.75
2023-05-23T00:33:34.449Z,95903.34
2023-05-23T00:36:01.232Z,95905.16
2023-05-23T00:38:28.647Z,95896.31
2023-05-23T00:40:55.494Z,95900.00
2023-05-23T00:43:22.909Z,95903.09
2023-05-23T00:45:50.034Z,95895.25
2023-05-23T00:48:17.224Z,95890.09
2023-05-23T00:50:44.247Z,95904.50
2023-05-23T00:53:11.126Z,95895.84
2023-05-23T00:55:39.736Z,95899.53
2023-05-23T00:58:06.793Z,95892.16
2023-05-23T01:00:34.905Z,95894.59
2023-05-23T01:03:01.938Z,95890.25
2023-05-23T01:05:28.806Z,95893.13
2023-05-23T01:07:55.817Z,95887.97
2023-05-23T01:10:28.301Z,95886.31
2023-05-23T01:16:49.182Z,95885.06
2023-05-23T01:19:37.086Z,95888.94
2023-05-23T01:22:16.917Z,95891.81
2023-05-23T01:25:05.016Z,95881.31
2023-05-23T01:27:38.203Z,95878.84
2023-05-23T01:30:07.883Z,95878.19
2023-05-23T01:32:37.131Z,95872.84
2023-05-23T01:35:05.158Z,95874.91
2023-05-23T01:37:32.032Z,95868.91
2023-05-23T01:39:58.815Z,95871.38
2023-05-23T01:42:25.698Z,95869.06
2023-05-23T01:44:52.658Z,95866.41
2023-05-23T01:47:21.090Z,95857.56
2023-05-23T01:49:48.567Z,95867.19
2023-05-23T01:52:15.717Z,95869.22
2023-05-23T01:54:43.984Z,95868.56
2023-05-23T01:57:11.476Z,95868.56
2023-05-23T01:59:39.140Z,95872.06
2023-05-23T02:02:06.585Z,95872.06
2023-05-23T02:04:33.969Z,95870.81
2023-05-23T02:07:01.117Z,95873.47
2023-05-23T02:09:27.965Z,95863.78
2023-05-23T02:11:54.871Z,95869.13
2023-05-23T02:14:21.740Z,95866.88
2023-05-23T02:16:48.508Z,95867.47
2023-05-23T02:19:15.529Z,95860.44
2023-05-23T02:21:42.328Z,95856.94
2023-05-23T02:24:09.134Z,95856.13
2023-05-23T02:26:35.961Z,95848.09
2023-05-23T02:29:03.008Z,95841.28
2023-05-23T02:31:30.108Z,95842.50
2023-05-23T02:33:56.936Z,95837.34
2023-05-23T02:36:23.693Z,95839.41
2023-05-23T02:38:50.780Z,95850.72
2023-05-23T02:41:17.541Z,95841.63
2023-05-23T02:43:47.456Z,95841.81
2023-05-23T02:46:14.247Z,95840.16
2023-05-23T02:48:41.058Z,95843.03
2023-05-23T02:51:08.040Z,95832.53
2023-05-23T02:53:34.769Z,95829.88
2023-05-23T02:56:01.793Z,95830.88
2023-05-23T02:58:28.720Z,95827.75
2023-05-23T03:00:55.812Z,95830.81
2023-05-23T03:03:22.738Z,95827.69
2023-05-23T03:05:49.667Z,95834.25
2023-05-23T03:08:16.514Z,95833.44
2023-05-23T03:10:43.351Z,95833.44
2023-05-23T03:13:10.103Z,95828.28
2023-05-23T03:15:36.907Z,95822.75
2023-05-23T03:18:03.718Z,95822.75
2023-05-23T03:20:30.829Z,95816.75
2023-05-23T03:22:57.576Z,95820.25
2023-05-23T03:25:24.665Z,95820.44
2023-05-23T03:27:51.552Z,95821.84
2023-05-23T03:30:18.507Z,95814.25
2023-05-23T03:32:45.356Z,95816.59
2023-05-23T03:35:12.527Z,95816.59
2023-05-23T03:37:39.367Z,95812.72
2023-05-23T03:40:07.522Z,95826.69
2023-05-23T03:42:34.301Z,95823.81
2023-05-23T03:45:01.180Z,95831.66
2023-05-23T03:47:28.185Z,95832.28
2023-05-23T03:49:54.921Z,95830.22
2023-05-23T03:52:21.728Z,95829.41
2023-05-23T03:54:48.508Z,95829.22
2023-05-23T03:57:15.315Z,95830.69
2023-05-23T03:59:42.188Z,95828.44
2023-05-23T04:02:08.949Z,95828.25
2023-05-23T04:04:36.305Z,95837.09
2023-05-23T04:07:03.311Z,95841.44
2023-05-23T04:09:30.129Z,95841.44
2023-05-23T04:11:58.570Z,95841.44
2023-05-23T04:14:25.435Z,95838.75
2023-05-23T04:16:52.592Z,95844.09
2023-05-23T04:19:19.855Z,95846.38
2023-05-23T04:21:46.683Z,95842.69
2023-05-23T04:24:13.366Z,95839.63
2023-05-23T04:26:40.167Z,95841.53
2023-05-23T04:29:07.516Z,95842.34
2023-05-23T04:31:34.467Z,95836.63
2023-05-23T04:34:02.673Z,95832.91
2023-05-23T04:36:30.396Z,95834.34
2023-05-23T04:38:57.463Z,95842.81
2023-05-23T04:41:24.559Z,95841.63
2023-05-23T04:43:54.733Z,95842.47
2023-05-23T04:46:27.651Z,95838.81
2023-05-23T04:48:55.355Z,95832.25
2023-05-23T04:51:22.575Z,95838.41
2023-05-23T04:53:49.741Z,95835.31
2023-05-23T04:56:19.880Z,95831.63
2023-05-23T04:58:48.279Z,95831.91
2023-05-23T05:01:15.883Z,95833.19
2023-05-23T05:03:42.861Z,95834.97
2023-05-23T05:06:09.776Z,95830.09
2023-05-23T05:08:37.062Z,95820.88
2023-05-23T05:11:03.848Z,95819.81
2023-05-23T05:13:30.672Z,95809.50
2023-05-23T05:15:57.488Z,95809.44
2023-05-23T05:18:24.267Z,95813.13
2023-05-23T05:20:51.287Z,95811.94
2023-05-23T05:23:18.150Z,95808.88
2023-05-23T05:25:44.910Z,95808.56
2023-05-23T05:28:11.816Z,95802.75
2023-05-23T05:30:39.174Z,95806.19
2023-05-23T05:33:07.926Z,95804.06
2023-05-23T05:35:35.578Z,95798.25
2023-05-23T05:38:05.517Z,95802.00
2023-05-23T05:40:32.888Z,95802.84
2023-05-23T05:42:59.719Z,95802.56
2023-05-23T05:45:26.763Z,95798.47
2023-05-23T05:47:53.593Z,95798.81
2023-05-23T05:50:20.597Z,95796.06
2023-05-23T05:52:47.368Z,95794.19
2023-05-23T05:55:14.254Z,95790.34
2023-05-23T05:57:41.552Z,95794.91
2023-05-23T06:00:15.148Z,95793.97
2023-05-23T06:02:51.670Z,95789.59
2023-05-23T06:05:18.952Z,95790.56
2023-05-23T06:07:48.863Z,95791.03
2023-05-23T06:10:16.302Z,95781.00
2023-05-23T06:12:43.231Z,95782.09
2023-05-23T06:15:10.483Z,95780.34
2023-05-23T06:17:37.963Z,95783.03
2023-05-23T06:20:05.638Z,95778.16
2023-05-23T06:22:32.530Z,95786.31
2023-05-23T06:24:59.415Z,95772.50
2023-05-23T06:27:26.255Z,95778.47
2023-05-23T06:29:53.042Z,95776.56
2023-05-23T06:32:19.809Z,95775.09
2023-05-23T06:34:46.661Z,95776.16
2023-05-23T06:37:13.422Z,95779.06
2023-05-23T06:39:40.271Z,95786.06
2023-05-23T06:42:07.404Z,95771.84
2023-05-23T06:44:34.191Z,95773.78
2023-05-23T06:47:01.088Z,95771.25
2023-05-23T06:49:27.872Z,95779.13
2023-05-23T06:51:54.785Z,95768.91
2023-05-23T06:54:21.665Z,95765.50
2023-05-23T06:56:48.457Z,95760.00
2023-05-23T06:59:15.250Z,95769.34
2023-05-23T07:01:42.128Z,95763.72
2023-05-23T07:04:08.977Z,95764.09
2023-05-23T07:06:36.599Z,95765.28
2023-05-23T07:09:04.348Z,95763.84
2023-05-23T07:11:31.386Z,95758.47
2023-05-23T07:13:59.209Z,95752.22
2023-05-23T07:16:26.101Z,95751.66
2023-05-23T07:18:52.930Z,95747.19
2023-05-23T07:21:19.726Z,95738.81
2023-05-23T07:23:46.619Z,95743.34
2023-05-23T07:26:13.454Z,95738.47
2023-05-23T07:28:40.342Z,95733.56
2023-05-23T07:31:09.532Z,95739.50
2023-05-23T07:33:36.453Z,95729.97
2023-05-23T07:36:03.839Z,95723.97
2023-05-23T07:38:30.742Z,95732.44
2023-05-23T07:41:09.994Z,95726.47
2023-05-23T07:43:38.683Z,95728.38
2023-05-23T07:46:05.526Z,95714.44
2023-05-23T07:48:32.520Z,95722.03
2023-05-23T07:50:59.393Z,95721.53
2023-05-23T07:53:26.438Z,95719.63
2023-05-23T07:55:53.476Z,95723.72
2023-05-23T07:58:20.288Z,95715.84
2023-05-23T08:00:47.073Z,95715.06
2023-05-23T08:03:14.159Z,95718.59
2023-05-23T08:05:40.967Z,95715.84
2023-05-23T08:08:07.735Z,95709.84
2023-05-23T08:10:34.570Z,95713.34
2023-05-23T08:13:04.605Z,95707.63
2023-05-23T08:15:31.467Z,95714.72
2023-05-23T08:17:59.071Z,95702.97
2023-05-23T08:20:31.069Z,95694.84
2023-05-23T08:23:02.013Z,95706.22
2023-05-23T08:25:32.657Z,95700.22
2023-05-23T08:28:00.609Z,95695.84
2023-05-23T08:30:28.816Z,95698.28
2023-05-23T08:32:56.947Z,95695.31
2023-05-23T08:35:24.549Z,95691.97
2023-05-23T08:37:52.509Z,95690.47
2023-05-23T08:40:21.970Z,95691.09
2023-05-23T08:42:50.234Z,95679.69
2023-05-23T08:45:17.960Z,95695.94
2023-05-23T08:47:46.247Z,95684.06
2023-05-23T08:50:20.078Z,95681.31
2023-05-23T08:52:57.720Z,95686.81
2023-05-23T08:55:29.138Z,95678.72
2023-05-23T08:57:57.952Z,95673.25
2023-05-23T09:00:26.444Z,95677.00
2023-05-23T09:02:54.726Z,95675.25
2023-05-23T09:05:22.140Z,95670.44
2023-05-23T09:07:49.505Z,95666.41
2023-05-23T09:10:22.803Z,95661.28
2023-05-23T09:12:49.873Z,95658.16
2023-05-23T09:15:17.475Z,95658.47
2023-05-23T09:17:45.453Z,95665.94
2023-05-23T09:20:17.563Z,95661.38
2023-05-23T09:22:48.900Z,95654.88
2023-05-23T09:25:16.474Z,95653.38
2023-05-23T09:27:46.591Z,95650.03
2023-05-23T09:30:15.056Z,95647.88
2023-05-23T09:32:42.576Z,95634.34
2023-05-23T09:35:14.313Z,95632.41
2023-05-23T09:37:46.235Z,95631.91
2023-05-23T09:40:15.177Z,95635.44
2023-05-23T09:42:47.319Z,95640.53
2023-05-23T09:45:15.310Z,95631.66
2023-05-23T09:47:52.427Z,95636.38
2023-05-23T09:50:20.987Z,95639.22
2023-05-23T09:52:48.283Z,95635.00
2023-05-23T09:55:15.395Z,95632.09
2023-05-23T09:57:44.117Z,95630.75
2023-05-23T10:00:15.266Z,95636.94
2023-05-23T10:03:00.548Z,95626.63
2023-05-23T10:05:47.262Z,95621.59
2023-05-23T10:08:31.404Z,95621.63
2023-05-23T10:10:58.126Z,95606.72
2023-05-23T10:13:29.085Z,95607.25
2023-05-23T10:16:02.982Z,95609.59
2023-05-23T10:18:31.139Z,95605.75
2023-05-23T10:21:04.306Z,95617.56
2023-05-23T10:23:31.854Z,95609.13
2023-05-23T10:25:58.662Z,95608.56
2023-05-23T10:28:27.340Z,95615.59
2023-05-23T10:30:54.195Z,95602.25
2023-05-23T10:33:22.746Z,95609.66
2023-05-23T10:36:10.411Z,95611.00
2023-05-23T10:38:47.116Z,95603.09
2023-05-23T10:41:29.648Z,95603.78
2023-05-23T10:44:25.326Z,95587.81
2023-05-23T10:46:57.746Z,95587.13
2023-05-23T10:49:45.100Z,95585.00
2023-05-23T10:52:16.172Z,95581.50
2023-05-23T10:54:53.942Z,95572.94
2023-05-23T10:57:22.974Z,95561.34
2023-05-23T10:59:53.048Z,95568.50
2023-05-23T11:02:27.608Z,95570.16
2023-05-23T11:05:16.592Z,95567.56
2023-05-23T11:07:43.353Z,95573.50
2023-05-23T11:10:17.343Z,95568.00
2023-05-23T11:12:45.161Z,95576.09
2023-05-23T11:15:17.907Z,95573.66
2023-05-23T11:17:56.509Z,95577.84
2023-05-23T11:20:31.326Z,95583.25
2023-05-23T11:23:03.051Z,95580.88
2023-05-23T11:25:43.922Z,95563.38
2023-05-23T11:28:12.140Z,95586.50
2023-05-23T11:30:39.856Z,95593.13
2023-05-23T11:33:09.563Z,95612.25
2023-05-23T11:35:37.409Z,95627.69
2023-05-23T11:38:05.794Z,95644.13
2023-05-23T11:40:34.841Z,95650.19
2023-05-23T11:43:04.606Z,95661.66
2023-05-23T11:45:32.542Z,95659.75
2023-05-23T11:48:00.230Z,95674.16
2023-05-23T11:50:27.210Z,95665.06
2023-05-23T11:52:55.785Z,95675.53
2023-05-23T11:55:23.402Z,95689.69
2023-05-23T11:57:52.080Z,95696.16
2023-05-23T12:00:19.650Z,95717.06
2023-05-23T12:02:49.066Z,95740.75
2023-05-23T12:05:16.314Z,95754.16
2023-05-23T12:07:45.369Z,95777.31
2023-05-23T12:10:12.393Z,95789.41
2023-05-23T12:12:40.974Z,95802.34
2023-05-23T12:15:09.596Z,95818.59
2023-05-23T12:17:44.172Z,95832.38
2023-05-23T12:20:11.892Z,95840.50
2023-05-23T12:22:38.840Z,95845.59
2023-05-23T12:25:10.381Z,95864.25
2023-05-23T12:27:37.752Z,95875.53
2023-05-23T12:30:07.165Z,95876.88
2023-05-23T12:32:34.259Z,95870.41
2023-05-23T12:35:01.323Z,95867.38
2023-05-23T12:37:28.219Z,95863.00
2023-05-23T12:39:55.214Z,95866.94
2023-05-23T12:42:22.132Z,95874.06
2023-05-23T12:44:53.860Z,95872.31
2023-05-23T12:47:20.950Z,95869.16
2023-05-23T12:49:48.274Z,95863.41
2023-05-23T12:52:15.268Z,95865.72
2023-05-23T12:54:42.321Z,95870.81
2023-05-23T12:57:09.332Z,95873.28
2023-05-23T12:59:36.267Z,95864.88
2023-05-23T13:02:03.410Z,95866.59
2023-05-23T13:04:32.256Z,95863.38
2023-05-23T13:06:59.560Z,95865.03
2023-05-23T13:09:26.332Z,95859.94
2023-05-23T13:11:53.332Z,95858.84
2023-05-23T13:14:20.173Z,95852.69
2023-05-23T13:16:47.415Z,95857.25
2023-05-23T13:19:14.390Z,95856.88
2023-05-23T13:21:41.218Z,95857.66
2023-05-23T13:24:09.032Z,95855.25
2023-05-23T13:26:35.902Z,95851.06
2023-05-23T13:29:02.821Z,95841.00
2023-05-23T13:31:29.921Z,95835.16
2023-05-23T13:33:56.991Z,95830.63
2023-05-23T13:36:23.915Z,95818.63
2023-05-23T13:38:50.718Z,95813.72
2023-05-23T13:41:17.747Z,95817.00
2023-05-23T13:43:44.658Z,95808.41
2023-05-23T13:46:12.757Z,95796.66
2023-05-23T13:48:39.735Z,95803.25
2023-05-23T13:51:06.974Z,95791.97
2023-05-23T13:53:33.878Z,95800.28
2023-05-23T13:56:00.960Z,95795.16
2023-05-23T13:58:28.291Z,95792.19
2023-05-23T14:00:56.119Z,95796.78
2023-05-23T14:03:23.137Z,95807.13
2023-05-23T14:05:50.138Z,95809.00
2023-05-23T14:08:17.000Z,95821.47
2023-05-23T14:10:44.044Z,95822.25
2023-05-23T14:13:12.134Z,95822.47
2023-05-23T14:15:39.335Z,95832.00
2023-05-23T14:18:06.418Z,95824.25
2023-05-23T14:20:33.432Z,95849.25
2023-05-23T14:23:00.299Z,95840.59
2023-05-23T14:25:27.153Z,95833.56
2023-05-23T14:27:53.952Z,95829.06
2023-05-23T14:30:20.896Z,95826.38
2023-05-23T14:32:47.811Z,95823.44
2023-05-23T14:35:14.775Z,95825.88
2023-05-23T14:37:41.695Z,95825.44
2023-05-23T14:40:10.390Z,95833.78
2023-05-23T14:42:37.909Z,95826.88
2023-05-23T14:45:05.230Z,95832.03
2023-05-23T14:47:32.784Z,95830.84
2023-05-23T14:49:59.878Z,95841.41
2023-05-23T14:52:26.971Z,95854.81
2023-05-23T14:54:53.814Z,95846.00
2023-05-23T14:57:20.854Z,95856.09
2023-05-23T14:59:47.959Z,95860.84
2023-05-23T15:02:14.831Z,95860.38
2023-05-23T15:04:42.010Z,95857.50
2023-05-23T15:07:08.987Z,95855.63
2023-05-23T15:09:35.941Z,95851.13
2023-05-23T15:12:03.195Z,95858.66
2023-05-23T15:14:32.308Z,95865.69
2023-05-23T15:32:29.284Z,95885.34
2023-05-23T15:34:56.831Z,95888.13
2023-05-23T15:37:24.109Z,95890.00
2023-05-23T15:39:50.905Z,95879.91
2023-05-23T15:42:25.354Z,95888.81
2023-05-23T15:44:53.321Z,95881.19
2023-05-23T15:47:34.967Z,95878.25
2023-05-23T15:50:01.938Z,95874.28
2023-05-23T15:52:32.416Z,95868.97
2023-05-23T15:55:07.147Z,95863.38
2023-05-23T15:57:41.666Z,95865.19
2023-05-23T16:00:10.291Z,95861.59
2023-05-23T16:08:09.916Z,95853.28
2023-05-23T16:10:39.209Z,95857.72
2023-05-23T16:13:24.113Z,95846.47
2023-05-23T16:18:49.210Z,95844.28
2023-05-23T16:21:29.900Z,95845.81
2023-05-23T16:23:57.719Z,95850.59
2023-05-23T16:29:05.288Z,95842.09
2023-05-23T16:31:35.534Z,95858.19
2023-05-23T16:36:48.673Z,95849.38
2023-05-23T16:39:30.589Z,95847.97
2023-05-23T16:42:03.046Z,95846.53
2023-05-23T16:44:33.837Z,95858.59
2023-05-23T16:49:41.952Z,95845.53
2023-05-23T16:54:50.057Z,95848.22
2023-05-23T16:57:17.762Z,95848.84
2023-05-23T16:59:52.982Z,95846.38
2023-05-23T17:02:20.575Z,95843.31
2023-05-23T17:04:50.720Z,95843.16
2023-05-23T17:10:09.580Z,95847.34
2023-05-23T17:12:38.861Z,95843.81
2023-05-23T17:15:16.564Z,95850.88
2023-05-23T17:17:54.867Z,95858.75
2023-05-23T17:20:28.065Z,95849.69
2023-05-23T17:23:04.594Z,95865.78
2023-05-23T17:25:35.320Z,95861.66
2023-05-23T17:30:53.426Z,95877.56
2023-05-23T17:36:02.405Z,95883.88
2023-05-23T17:38:32.775Z,95887.03
2023-05-23T17:41:05.069Z,95883.38
2023-05-23T17:43:34.936Z,95889.53
2023-05-23T17:46:01.882Z,95884.56
2023-05-23T17:51:21.559Z,95882.06
2023-05-23T17:54:07.204Z,95891.41
2023-05-23T17:56:34.179Z,95891.03
2023-05-23T17:59:15.377Z,95885.25
2023-05-23T18:01:50.345Z,95883.63
2023-05-23T18:04:22.232Z,95883.81
2023-05-23T18:06:58.479Z,95885.13
2023-05-23T18:09:27.236Z,95887.66
2023-05-23T18:12:06.455Z,95885.00
2023-05-23T18:14:46.414Z,95898.31
2023-05-23T18:17:23.305Z,95890.13
2023-05-23T18:19:58.792Z,95894.16
2023-05-23T18:22:26.267Z,95889.06
2023-05-23T18:25:08.796Z,95887.25
2023-05-23T18:27:44.981Z,95898.25
2023-05-23T18:30:20.697Z,95902.63
2023-05-23T18:32:49.211Z,95904.72
2023-05-23T18:35:16.527Z,95905.19
2023-05-23T18:37:52.479Z,95910.97
2023-05-23T18:43:11.989Z,95917.25
2023-05-23T18:45:46.884Z,95924.50
2023-05-23T18:48:19.524Z,95915.41
2023-05-23T18:50:58.095Z,95926.19
2023-05-23T18:53:24.831Z,95924.97
2023-05-23T18:55:52.936Z,95928.28
2023-05-23T18:58:21.348Z,95931.56
2023-05-23T19:00:55.125Z,95934.94
2023-05-23T19:03:30.461Z,95945.25
2023-05-23T19:06:11.440Z,95933.69
2023-05-23T19:11:21.656Z,95937.25
2023-05-23T19:13:48.564Z,95936.66
2023-05-23T19:16:22.346Z,95938.28
2023-05-23T19:19:05.877Z,95942.66
2023-05-23T19:21:43.824Z,95942.25
2023-05-23T19:24:13.690Z,95937.09
2023-05-23T19:26:46.043Z,95930.13
2023-05-23T19:32:06.831Z,95942.94
2023-05-23T19:37:17.049Z,95925.78
2023-05-23T19:39:49.834Z,95928.47
2023-05-23T19:42:26.316Z,95927.28
2023-05-23T19:50:17.176Z,95942.16
2023-05-23T19:52:44.724Z,95939.53
2023-05-23T19:55:15.008Z,95944.06
2023-05-23T20:00:25.930Z,95952.59
2023-05-23T20:02:53.069Z,95952.41
2023-05-23T20:08:07.923Z,95964.25
2023-05-23T20:10:37.251Z,95963.03
2023-05-23T20:13:11.990Z,95953.88
2023-05-23T20:15:43.475Z,95954.75
2023-05-23T20:18:30.244Z,95954.94
2023-05-23T20:20:59.632Z,95944.22
2023-05-23T20:26:10.135Z,95956.44
2023-05-23T20:28:38.002Z,95960.59
2023-05-23T20:31:17.959Z,95955.22
2023-05-23T20:33:47.969Z,95970.28
2023-05-23T20:36:25.784Z,95970.50
2023-05-23T20:44:20.908Z,95976.09
2023-05-23T20:49:38.099Z,95971.97
2023-05-23T20:52:12.843Z,95972.41
2023-05-23T21:00:17.555Z,95979.03
2023-05-23T21:02:47.839Z,95983.38
2023-05-23T21:05:25.967Z,95983.16
2023-05-23T21:07:55.179Z,95978.41
2023-05-23T21:10:24.323Z,95984.19
2023-05-23T21:13:07.348Z,95980.47
2023-05-23T21:15:37.486Z,95982.13
2023-05-23T21:18:14.017Z,95983.38
2023-05-23T21:20:43.273Z,95986.25
2023-05-23T21:23:26.413Z,95976.97
2023-05-23T21:25:58.989Z,95980.25
2023-05-23T21:28:37.283Z,95971.81
2023-05-23T21:31:21.602Z,95964.78
2023-05-23T21:33:56.265Z,95966.19
2023-05-23T21:36:36.248Z,95966.19
2023-05-23T21:39:15.348Z,95966.00
2023-05-23T21:41:49.458Z,95967.66
2023-05-23T21:44:24.002Z,95959.38
2023-05-23T21:47:00.067Z,95961.44
2023-05-23T21:49:35.865Z,95974.25
2023-05-23T21:52:07.345Z,95965.78
2023-05-23T21:54:51.394Z,95974.25
2023-05-23T21:57:29.406Z,95961.25
2023-05-23T22:00:07.600Z,95960.63
2023-05-23T22:02:34.842Z,95960.63
2023-05-23T22:05:17.112Z,95954.44
2023-05-23T22:07:46.535Z,95946.38
2023-05-23T22:10:23.619Z,95954.44
2023-05-23T22:12:54.633Z,95948.03
2023-05-23T22:15:22.190Z,95948.44
2023-05-23T22:17:50.220Z,95955.88
2023-05-23T22:20:17.487Z,95959.59
2023-05-23T22:23:05.588Z,95966.38
2023-05-23T22:25:33.504Z,95961.22
2023-05-23T22:28:08.449Z,95967.41
2023-05-23T22:30:44.945Z,95959.16
2023-05-23T22:33:24.625Z,95967.84
2023-05-23T22:36:03.088Z,95966.59
2023-05-23T22:38:38.694Z,95965.75
2023-05-23T22:41:12.332Z,95961.44
2023-05-23T22:43:39.809Z,95961.00
2023-05-23T22:46:10.663Z,95961.63
2023-05-23T22:48:38.683Z,95964.94
2023-05-23T22:51:14.886Z,95958.53
2023-05-23T22:53:50.012Z,95959.34
2023-05-23T22:56:19.384Z,95959.56
2023-05-23T22:58:47.960Z,95965.94
2023-05-23T23:04:05.818Z,95960.41
2023-05-23T23:06:44.929Z,95962.25
2023-05-23T23:09:20.644Z,95961.63
2023-05-23T23:11:50.099Z,95960.41
2023-05-23T23:14:29.419Z,95955.63
2023-05-23T23:17:03.469Z,95961.22
2023-05-23T23:19:42.160Z,95950.69
2023-05-23T23:27:41.425Z,95961.22
2023-05-23T23:33:00.235Z,95967.81
2023-05-23T23:35:39.916Z,95974.19
2023-05-23T23:38:06.909Z,95976.69
2023-05-23T23:40:42.452Z,95973.19
2023-05-23T23:43:09.308Z,95975.03
2023-05-23T23:45:39.987Z,95971.09
2023-05-23T23:48:10.636Z,95970.66
2023-05-23T23:50:38.127Z,95976.84
2023-05-23T23:53:16.915Z,95973.78
2023-05-23T23:55:47.746Z,95982.22
2023-05-23T23:58:18.734Z,95977.91
